Time;durP1;ratioP1;P1;durP2;ratioP2;P2;SDS_P1;SDS_P2;PMS_P1;PMS_P2;Temp;Humidity;BMP_temperature;BMP_pressure;BME280_temperature;BME280_humidity;BME280_pressure;Samples;Min_cycle;Max_cycle;Signal;HPM_P1;HPM_P2
2023/08/12 00:00:44;;;;;;;11.37;7.30;;;;;;;23.46;100.00;101675.94;5249477;28;20111;-74
2023/08/12 00:03:15;;;;;;;11.27;7.67;;;;;;;23.39;100.00;101664.38;5249101;28;20029;-74
2023/08/12 00:05:46;;;;;;;13.47;7.03;;;;;;;23.42;100.00;101672.00;5251731;28;20379;-73
2023/08/12 00:08:17;;;;;;;7.80;7.00;;;;;;;23.41;100.00;101677.53;5250946;28;20033;-74
2023/08/12 00:10:49;;;;;;;12.03;6.87;;;;;;;23.24;100.00;101674.34;5243851;28;20437;-75
2023/08/12 00:13:20;;;;;;;9.77;6.83;;;;;;;23.24;100.00;101672.50;5248115;28;20367;-75
2023/08/12 00:15:52;;;;;;;11.63;7.67;;;;;;;23.21;100.00;101667.53;5248758;28;20448;-75
2023/08/12 00:18:23;;;;;;;12.87;7.13;;;;;;;23.16;100.00;101659.25;5247689;28;20029;-72
2023/08/12 00:20:55;;;;;;;11.10;7.83;;;;;;;23.16;100.00;101658.44;5249385;28;20091;-75
2023/08/12 00:23:26;;;;;;;10.30;7.30;;;;;;;23.14;100.00;101649.78;5250741;28;20021;-75
2023/08/12 00:25:58;;;;;;;9.13;7.43;;;;;;;23.13;100.00;101646.28;5247766;28;20033;-75
2023/08/12 00:28:29;;;;;;;8.18;6.63;;;;;;;23.15;100.00;101654.13;5249968;28;20064;-74
2023/08/12 00:31:01;;;;;;;11.13;7.43;;;;;;;23.14;100.00;101649.78;5246662;28;20327;-74
2023/08/12 00:33:32;;;;;;;12.37;7.07;;;;;;;23.14;100.00;101644.44;5243257;28;21106;-75
2023/08/12 00:36:03;;;;;;;14.80;8.13;;;;;;;23.11;100.00;101637.66;5250478;28;20031;-73
2023/08/12 00:38:35;;;;;;;10.67;8.10;;;;;;;23.08;100.00;101635.34;5241217;28;20387;-75
2023/08/12 00:41:06;;;;;;;12.47;7.27;;;;;;;23.12;100.00;101643.81;5240798;28;20520;-75
2023/08/12 00:43:37;;;;;;;11.27;7.90;;;;;;;23.13;100.00;101637.44;5250649;28;20032;-75
2023/08/12 00:46:09;;;;;;;11.03;8.00;;;;;;;23.13;100.00;101632.09;5250266;28;20029;-74
2023/08/12 00:48:40;;;;;;;15.93;8.07;;;;;;;23.11;100.00;101631.44;5251779;28;20025;-72
2023/08/12 00:51:11;;;;;;;11.20;7.90;;;;;;;23.10;100.00;101622.59;5248323;28;20043;-75
2023/08/12 00:53:46;;;;;;;9.93;7.73;;;;;;;23.12;100.00;101631.28;5251341;28;20456;-74
2023/08/12 00:56:17;;;;;;;11.93;8.15;;;;;;;23.08;100.00;101627.34;5236089;28;20067;-72
2023/08/12 00:58:49;;;;;;;13.43;8.33;;;;;;;23.10;100.00;101625.28;5250733;28;20155;-75
2023/08/12 01:01:20;;;;;;;9.60;7.97;;;;;;;23.11;100.00;101621.59;5243015;28;20032;-72
2023/08/12 01:03:52;;;;;;;11.77;8.67;;;;;;;23.01;100.00;101618.44;5251149;28;20032;-75
2023/08/12 01:06:23;;;;;;;10.67;8.27;;;;;;;23.04;100.00;101624.22;5250143;28;20028;-73
2023/08/12 01:08:55;;;;;;;13.73;8.87;;;;;;;23.01;100.00;101616.59;5247264;28;20278;-74
2023/08/12 01:11:39;;;;;;;12.70;9.13;;;;;;;23.22;100.00;101614.88;5247531;28;20032;-74
2023/08/12 01:14:25;;;;;;;12.05;8.73;;;;;;;22.95;100.00;101614.66;5250530;28;20021;-75
2023/08/12 01:17:03;;;;;;;10.30;8.80;;;;;;;22.99;100.00;101607.09;5250122;28;20504;-73
2023/08/12 01:19:38;;;;;;;9.50;8.18;;;;;;;;;;5251072;28;20022;-73
2023/08/12 01:22:11;;;;;;;13.18;8.25;;;;;;;22.94;100.00;101598.84;5245997;28;20065;-74
2023/08/12 01:24:44;;;;;;;12.30;8.45;;;;;;;22.93;100.00;101598.03;5251477;28;20041;-74
2023/08/12 01:27:15;;;;;;;;;;;;;;;23.75;100.00;101592.00;5248080;28;20116;-74
2023/08/12 01:29:49;;;;;;;10.63;8.07;;;;;;;22.95;100.00;101579.94;5249793;28;19920;-74
2023/08/12 01:32:33;;;;;;;11.35;8.77;;;;;;;23.12;100.00;101590.34;5249270;28;20033;-74
2023/08/12 01:35:08;;;;;;;13.57;8.25;;;;;;;22.95;100.00;101584.44;5246711;28;20107;-74
2023/08/12 01:37:41;;;;;;;13.98;8.55;;;;;;;22.91;100.00;101583.16;5247666;28;20490;-74
2023/08/12 01:40:16;;;;;;;10.95;8.52;;;;;;;22.91;100.00;101577.81;5247632;28;20033;-72
2023/08/12 01:42:48;;;;;;;11.35;8.35;;;;;;;22.83;100.00;101570.75;5247637;28;20029;-74
2023/08/12 01:45:19;;;;;;;12.18;8.05;;;;;;;22.84;100.00;101572.41;5246790;28;20040;-74
2023/08/12 01:47:51;;;;;;;9.57;7.40;;;;;;;22.90;100.00;101571.66;5249488;28;20398;-74
2023/08/12 01:50:22;;;;;;;12.57;7.30;;;;;;;22.77;100.00;101558.19;5248265;28;20025;-74
2023/08/12 01:52:53;;;;;;;15.97;7.43;;;;;;;22.86;100.00;101565.03;5248602;28;20025;-74
2023/08/12 01:55:25;;;;;;;8.83;7.47;;;;;;;22.84;100.00;101567.06;5249960;28;20030;-74
2023/08/12 01:57:56;;;;;;;8.97;6.63;;;;;;;22.83;100.00;101568.91;5244532;28;20040;-73
2023/08/12 02:00:28;;;;;;;12.83;7.60;;;;;;;22.81;100.00;101556.78;5247495;28;20440;-73
2023/08/12 02:02:59;;;;;;;13.03;6.97;;;;;;;22.81;100.00;101562.97;5249618;28;20524;-74
2023/08/12 02:05:30;;;;;;;11.70;7.23;;;;;;;22.83;100.00;101560.09;5248917;28;20040;-75
2023/08/12 02:08:02;;;;;;;8.73;6.40;;;;;;;22.81;100.00;101556.78;5242884;28;20031;-74
2023/08/12 02:10:33;;;;;;;11.17;6.93;;;;;;;22.80;100.00;101557.78;5250404;28;20107;-73
2023/08/12 02:13:05;;;;;;;10.57;6.63;;;;;;;22.75;100.00;101549.53;5252682;28;20496;-74
2023/08/12 02:15:36;;;;;;;10.57;7.23;;;;;;;22.77;100.00;101552.84;5251218;28;20992;-74
2023/08/12 02:18:07;;;;;;;10.83;6.60;;;;;;;22.75;100.00;101554.88;5244916;28;20439;-74
2023/08/12 02:20:40;;;;;;;10.03;6.40;;;;;;;22.75;100.00;101562.91;5250829;28;20041;-75
2023/08/12 02:23:11;;;;;;;9.88;6.15;;;;;;;22.68;100.00;101548.66;5252853;28;20068;-73
2023/08/12 02:25:43;;;;;;;8.50;6.37;;;;;;;22.71;100.00;101543.75;5249898;28;20171;-74
2023/08/12 02:28:14;;;;;;;7.73;5.87;;;;;;;22.68;100.00;101538.78;5230678;28;20036;-75
2023/08/12 02:30:45;;;;;;;11.63;6.00;;;;;;;22.66;100.00;101538.19;5252769;28;20035;-75
2023/08/12 02:33:17;;;;;;;8.47;6.60;;;;;;;22.66;100.00;101538.19;5252512;28;20420;-72
2023/08/12 02:35:52;;;;;;;11.27;6.10;;;;;;;22.76;100.00;101532.47;5248982;28;20124;-73
2023/08/12 02:38:24;;;;;;;9.55;5.65;;;;;;;22.58;100.00;101535.66;5234449;28;20500;-74
2023/08/12 02:40:55;;;;;;;8.67;5.60;;;;;;;22.59;100.00;101530.09;5250635;28;20029;-73
2023/08/12 02:43:26;;;;;;;10.43;6.43;;;;;;;22.58;100.00;101523.13;5252470;28;20093;-73
2023/08/12 02:45:58;;;;;;;10.70;5.87;;;;;;;22.61;100.00;101521.06;5252614;28;20494;-74
2023/08/12 02:48:29;;;;;;;9.13;6.23;;;;;;;22.58;100.00;101519.63;5251791;28;20067;-74
2023/08/12 02:51:00;;;;;;;8.93;6.13;;;;;;;22.58;100.00;101522.28;5249576;28;20042;-74
2023/08/12 02:53:31;;;;;;;8.33;5.50;;;;;;;22.58;100.00;101507.09;5250903;28;20056;-72
2023/08/12 02:56:03;;;;;;;7.23;5.50;;;;;;;22.61;100.00;101513.06;5252406;28;20101;-75
2023/08/12 02:58:34;;;;;;;10.83;5.80;;;;;;;22.53;100.00;101500.66;5252547;28;20055;-72
2023/08/12 03:01:06;;;;;;;8.27;5.57;;;;;;;22.52;100.00;101515.88;5252151;28;20800;-74
2023/08/12 03:03:37;;;;;;;7.70;6.03;;;;;;;22.50;100.00;101509.06;5251723;28;20033;-74
2023/08/12 03:06:08;;;;;;;6.73;4.90;;;;;;;22.50;100.00;101507.22;5252027;28;20055;-74
2023/08/12 03:08:40;;;;;;;9.97;5.63;;;;;;;22.48;100.00;101498.56;5251386;28;20056;-75
2023/08/12 03:11:11;;;;;;;7.33;5.30;;;;;;;22.44;100.00;101502.66;5234144;28;20037;-73
2023/08/12 03:13:42;;;;;;;7.37;4.83;;;;;;;22.46;100.00;101505.94;5249770;28;20589;-74
2023/08/12 03:16:14;;;;;;;7.93;4.90;;;;;;;22.43;100.00;101509.03;5249784;28;20057;-73
2023/08/12 03:18:45;;;;;;;7.17;5.47;;;;;;;22.41;100.00;101499.53;5250350;28;20026;-74
2023/08/12 03:21:16;;;;;;;8.37;5.53;;;;;;;22.39;100.00;101497.06;5250778;28;20428;-72
2023/08/12 03:23:48;;;;;;;8.07;4.70;;;;;;;22.38;100.00;101492.72;5248548;28;20053;-74
2023/08/12 03:26:19;;;;;;;7.20;5.20;;;;;;;22.39;100.00;101489.06;5251179;28;20037;-74
2023/08/12 03:28:50;;;;;;;6.77;5.33;;;;;;;22.36;100.00;101484.09;5248698;28;20029;-74
2023/08/12 03:31:22;;;;;;;7.67;5.30;;;;;;;22.31;100.00;101491.84;5250822;28;20462;-74
2023/08/12 03:33:53;;;;;;;8.17;5.27;;;;;;;22.26;100.00;101479.06;5250212;28;20035;-74
2023/08/12 03:36:24;;;;;;;9.57;5.70;;;;;;;22.28;100.00;101470.91;5251065;28;20458;-74
2023/08/12 03:38:55;;;;;;;6.87;5.23;;;;;;;22.25;100.00;101464.09;5232682;28;20040;-74
2023/08/12 03:41:27;;;;;;;6.53;5.10;;;;;;;22.19;100.00;101456.84;5229210;28;20043;-74
2023/08/12 03:43:58;;;;;;;7.60;6.07;;;;;;;22.19;100.00;101461.34;5249454;28;20032;-74
2023/08/12 03:46:29;;;;;;;8.13;5.67;;;;;;;22.19;100.00;101474.69;5250203;28;20122;-74
2023/08/12 03:49:00;;;;;;;8.50;5.67;;;;;;;22.20;100.00;101468.34;5250376;28;20070;-74
2023/08/12 03:51:32;;;;;;;9.80;5.33;;;;;;;22.13;100.00;101462.94;5249533;28;20040;-72
2023/08/12 03:54:03;;;;;;;8.20;5.77;;;;;;;22.09;100.00;101459.00;5251669;28;20052;-73
2023/08/12 03:56:35;;;;;;;6.83;4.83;;;;;;;22.10;100.00;101458.78;5250866;28;20029;-73
2023/08/12 03:59:06;;;;;;;6.73;4.70;;;;;;;22.14;100.00;101458.44;5250755;28;20107;-74
2023/08/12 04:01:37;;;;;;;7.30;4.63;;;;;;;22.15;100.00;101446.75;5248257;28;20041;-74
2023/08/12 04:04:09;;;;;;;6.17;4.60;;;;;;;22.13;100.00;101451.44;5231520;28;20308;-74
2023/08/12 04:06:40;;;;;;;6.00;4.13;;;;;;;22.16;100.00;101456.38;5253546;28;20035;-74
2023/08/12 04:09:11;;;;;;;6.33;4.10;;;;;;;22.11;100.00;101446.25;5246878;28;20112;-73
2023/08/12 04:11:42;;;;;;;5.83;4.63;;;;;;;22.15;100.00;101438.72;5248572;28;20035;-74
2023/08/12 04:14:14;;;;;;;7.27;4.20;;;;;;;22.12;100.00;101434.56;5252390;28;20037;-74
2023/08/12 04:16:45;;;;;;;8.13;4.10;;;;;;;22.09;100.00;101429.63;5248701;28;20490;-74
2023/08/12 04:19:17;;;;;;;6.17;3.83;;;;;;;22.05;100.00;101433.72;5250777;28;20037;-73
2023/08/12 04:21:48;;;;;;;4.97;3.90;;;;;;;22.05;100.00;101447.03;5248916;28;20060;-74
2023/08/12 04:24:19;;;;;;;6.30;4.37;;;;;;;22.01;100.00;101438.59;5243719;28;20040;-73
2023/08/12 04:26:50;;;;;;;6.93;4.03;;;;;;;21.99;100.00;101440.63;5248577;28;20035;-73
2023/08/12 04:29:22;;;;;;;7.60;4.10;;;;;;;21.99;100.00;101439.78;5250621;28;20509;-74
2023/08/12 04:31:53;;;;;;;6.87;4.10;;;;;;;21.95;100.00;101439.34;5250580;28;20029;-71
2023/08/12 04:34:24;;;;;;;7.07;4.37;;;;;;;21.92;100.00;101437.06;5249494;28;20037;-74
2023/08/12 04:36:56;;;;;;;6.73;4.07;;;;;;;21.94;100.00;101443.03;5247694;28;20517;-74
2023/08/12 04:39:27;;;;;;;6.10;4.57;;;;;;;21.95;100.00;101447.34;5252808;28;20033;-72
2023/08/12 04:41:58;;;;;;;5.70;4.40;;;;;;;21.95;100.00;101434.00;5249957;28;20029;-74
2023/08/12 04:44:29;;;;;;;8.13;5.37;;;;;;;21.84;100.00;101415.84;5246896;28;20067;-73
2023/08/12 04:47:01;;;;;;;10.00;5.60;;;;;;;21.90;100.00;101425.75;5250469;28;20098;-75
2023/08/12 04:49:32;;;;;;;7.50;5.53;;;;;;;21.90;100.00;101428.44;5251577;28;20039;-73
2023/08/12 04:52:03;;;;;;;10.23;6.30;;;;;;;21.86;100.00;101428.00;5249212;28;20044;-75
2023/08/12 04:54:35;;;;;;;6.97;5.63;;;;;;;21.85;100.00;101420.16;5250109;28;20033;-75
2023/08/12 04:57:06;;;;;;;7.83;5.23;;;;;;;21.81;100.00;101421.56;5233614;28;20478;-75
2023/08/12 04:59:37;;;;;;;8.43;4.90;;;;;;;21.66;100.00;101394.13;5247502;28;20364;-75
2023/08/12 05:02:09;;;;;;;7.53;4.70;;;;;;;21.71;100.00;101403.22;5248274;28;20409;-72
2023/08/12 05:04:40;;;;;;;8.90;4.77;;;;;;;21.69;100.00;101402.56;5249986;28;20553;-74
2023/08/12 05:07:11;;;;;;;6.77;4.43;;;;;;;21.68;100.00;101408.09;5245906;28;20425;-74
2023/08/12 05:09:46;;;;;;;7.87;4.60;;;;;;;21.67;100.00;101401.94;5248737;28;20532;-75
2023/08/12 05:12:17;;;;;;;6.43;4.60;;;;;;;21.61;100.00;101406.19;5251060;28;20037;-75
2023/08/12 05:14:48;;;;;;;6.63;4.63;;;;;;;21.67;100.00;101398.44;5248671;28;20037;-74
2023/08/12 05:17:19;;;;;;;7.77;4.97;;;;;;;21.68;100.00;101400.09;5252614;28;20032;-75
2023/08/12 05:19:51;;;;;;;6.90;5.20;;;;;;;21.64;100.00;101402.31;5249321;28;20036;-74
2023/08/12 05:22:22;;;;;;;7.00;5.20;;;;;;;21.64;100.00;101409.50;5249322;28;20429;-75
2023/08/12 05:24:53;;;;;;;6.60;4.70;;;;;;;21.60;100.00;101391.19;5250521;28;20488;-75
2023/08/12 05:27:25;;;;;;;7.27;4.97;;;;;;;21.67;100.00;101382.41;5251071;28;20095;-75
2023/08/12 05:29:56;;;;;;;5.40;4.40;;;;;;;21.65;100.00;101401.28;5248700;28;20029;-75
2023/08/12 05:32:27;;;;;;;7.10;4.67;;;;;;;21.67;100.00;101393.09;5251072;28;20115;-75
2023/08/12 05:34:58;;;;;;;5.30;4.07;;;;;;;21.59;100.00;101397.56;5248578;28;20025;-75
2023/08/12 05:37:30;;;;;;;4.40;3.60;;;;;;;21.56;100.00;101381.94;5248283;28;20071;-75
2023/08/12 05:40:03;;;;;;;5.33;3.83;;;;;;;21.67;100.00;101396.59;5247279;28;20021;-73
2023/08/12 05:42:34;;;;;;;;;;;;;;;22.44;100.00;101393.19;5247558;28;20497;-74
2023/08/12 05:45:06;;;;;;;5.68;3.30;;;;;;;21.70;100.00;101384.72;5248929;28;20005;-74
2023/08/12 05:47:37;;;;;;;4.67;3.07;;;;;;;21.60;100.00;101383.19;5249002;28;20036;-73
2023/08/12 05:50:09;;;;;;;4.03;2.90;;;;;;;21.65;100.00;101387.97;5247136;28;20040;-74
2023/08/12 05:52:40;;;;;;;6.27;3.70;;;;;;;21.60;100.00;101385.03;5247782;28;20039;-72
2023/08/12 05:55:11;;;;;;;4.73;3.33;;;;;;;21.62;100.00;101386.50;5249491;28;20052;-76
2023/08/12 05:57:43;;;;;;;4.33;3.67;;;;;;;21.60;100.00;101388.53;5250192;28;20080;-73
2023/08/12 06:00:14;;;;;;;3.60;3.20;;;;;;;21.60;100.00;101385.03;5246022;28;20029;-75
2023/08/12 06:02:45;;;;;;;5.03;3.77;;;;;;;21.58;100.00;101379.06;5236488;28;20025;-73
2023/08/12 06:05:16;;;;;;;5.53;4.00;;;;;;;21.61;100.00;101371.50;5248216;28;20033;-73
2023/08/12 06:07:48;;;;;;;6.60;3.80;;;;;;;21.70;100.00;101382.03;5250593;28;20029;-76
2023/08/12 06:10:19;;;;;;;4.73;3.30;;;;;;;21.68;100.00;101379.59;5248120;28;20086;-73
2023/08/12 06:12:50;;;;;;;4.83;3.63;;;;;;;21.69;100.00;101369.75;5249071;28;20110;-72
2023/08/12 06:15:21;;;;;;;5.60;3.57;;;;;;;21.70;100.00;101366.88;5230460;28;20064;-74
2023/08/12 06:17:53;;;;;;;5.50;3.60;;;;;;;21.73;100.00;101368.34;5251088;28;20308;-74
2023/08/12 06:20:24;;;;;;;4.90;3.90;;;;;;;21.71;100.00;101368.53;5246333;28;20063;-73
2023/08/12 06:22:56;;;;;;;5.20;3.60;;;;;;;21.69;100.00;101365.22;5247060;28;20481;-73
2023/08/12 06:25:27;;;;;;;3.90;3.00;;;;;;;21.70;100.00;101366.03;5244644;28;20402;-73
2023/08/12 06:27:58;;;;;;;3.73;3.00;;;;;;;21.70;100.00;101353.53;5246202;28;20553;-73
2023/08/12 06:30:30;;;;;;;3.13;2.83;;;;;;;21.69;100.00;101353.75;5249399;28;20052;-74
2023/08/12 06:33:01;;;;;;;3.50;3.03;;;;;;;21.74;100.00;101353.97;5244793;28;20533;-76
2023/08/12 06:35:33;;;;;;;4.40;3.33;;;;;;;21.77;100.00;101348.28;5245713;28;20036;-72
2023/08/12 06:38:04;;;;;;;3.17;2.87;;;;;;;21.78;100.00;101344.56;5245955;28;20292;-74
2023/08/12 06:40:37;;;;;;;3.00;2.40;;;;;;;21.81;100.00;101341.53;5246767;28;20785;-72
2023/08/12 06:43:09;;;;;;;2.88;2.08;;;;;;;21.76;100.00;101346.63;5244108;28;20084;-73
2023/08/12 06:45:40;;;;;;;3.57;2.20;;;;;;;21.81;100.00;101350.34;5246607;28;20120;-73
2023/08/12 06:48:12;;;;;;;3.33;2.40;;;;;;;21.87;100.00;101348.78;5244641;28;20037;-72
2023/08/12 06:50:43;;;;;;;2.70;2.07;;;;;;;21.87;100.00;101351.44;5240937;28;20037;-72
2023/08/12 06:53:14;;;;;;;3.00;2.43;;;;;;;21.94;100.00;101344.31;5245493;28;20053;-73
2023/08/12 06:55:46;;;;;;;2.87;2.27;;;;;;;21.94;100.00;101333.66;5239747;28;20069;-74
2023/08/12 06:58:17;;;;;;;2.60;2.40;;;;;;;22.03;100.00;101332.47;5243559;28;20031;-72
2023/08/12 07:00:48;;;;;;;2.57;2.37;;;;;;;22.04;100.00;101331.47;5249350;28;20063;-74
2023/08/12 07:03:20;;;;;;;2.60;2.40;;;;;;;22.07;100.00;101331.06;5243281;28;20033;-72
2023/08/12 07:05:52;;;;;;;2.47;2.27;;;;;;;22.10;100.00;101336.03;5250769;28;20517;-72
2023/08/12 07:08:24;;;;;;;2.58;2.38;;;;;;;22.02;100.00;101325.50;5244559;28;20072;-72
2023/08/12 07:10:55;;;;;;;3.03;2.63;;;;;;;22.11;100.00;101331.50;5252221;28;20100;-73
2023/08/12 07:13:27;;;;;;;3.00;2.70;;;;;;;22.00;100.00;101318.72;5247943;28;20048;-73
2023/08/12 07:15:58;;;;;;;2.93;2.73;;;;;;;22.00;100.00;101324.88;5246333;28;20045;-73
2023/08/12 07:18:29;;;;;;;3.20;2.90;;;;;;;22.09;100.00;101331.72;5246903;28;20025;-73
2023/08/12 07:21:00;;;;;;;3.23;2.93;;;;;;;22.13;100.00;101331.34;5241293;28;20473;-73
2023/08/12 07:23:32;;;;;;;4.20;3.27;;;;;;;22.10;100.00;101329.88;5249340;28;20044;-73
2023/08/12 07:26:03;;;;;;;3.80;3.13;;;;;;;22.14;100.00;101331.16;5244414;28;20036;-75
2023/08/12 07:28:34;;;;;;;3.30;3.00;;;;;;;22.13;100.00;101337.50;5246402;28;20040;-72
2023/08/12 07:31:05;;;;;;;6.47;3.10;;;;;;;22.11;100.00;101340.34;5249403;28;20115;-73
2023/08/12 07:33:37;;;;;;;3.47;2.90;;;;;;;22.14;100.00;101336.50;5248712;28;20025;-73
2023/08/12 07:36:08;;;;;;;3.30;2.73;;;;;;;22.17;100.00;101343.31;5248973;28;20371;-73
2023/08/12 07:38:40;;;;;;;3.17;2.80;;;;;;;22.18;100.00;101327.09;5250611;28;20490;-73
2023/08/12 07:41:11;;;;;;;2.90;2.50;;;;;;;22.18;100.00;101342.28;5245439;28;20889;-72
2023/08/12 07:43:42;;;;;;;3.37;2.80;;;;;;;22.23;100.00;101335.31;5248598;28;20376;-73
2023/08/12 07:46:13;;;;;;;3.03;2.67;;;;;;;22.28;100.00;101330.25;5253038;28;20490;-73
2023/08/12 07:48:45;;;;;;;2.77;2.33;;;;;;;22.26;100.00;101324.25;5251804;28;20370;-72
2023/08/12 07:51:16;;;;;;;2.23;2.03;;;;;;;22.33;100.00;101310.97;5251045;28;20421;-72
2023/08/12 07:53:47;;;;;;;4.23;2.50;;;;;;;22.34;100.00;101328.63;5232679;28;20036;-72
2023/08/12 07:56:19;;;;;;;2.50;2.30;;;;;;;22.31;100.00;101313.00;5252373;28;20097;-75
2023/08/12 07:58:50;;;;;;;2.73;2.10;;;;;;;22.38;100.00;101331.72;5252275;28;20028;-72
2023/08/12 08:01:21;;;;;;;3.17;1.80;;;;;;;22.34;100.00;101321.44;5252380;28;20031;-73
2023/08/12 08:03:52;;;;;;;3.43;1.60;;;;;;;22.49;100.00;101344.53;5246129;28;20406;-73
2023/08/12 08:06:24;;;;;;;3.17;1.93;;;;;;;22.62;100.00;101341.13;5250575;28;20107;-73
2023/08/12 08:08:55;;;;;;;1.93;1.70;;;;;;;22.59;100.00;101340.50;5249592;28;20032;-73
2023/08/12 08:11:26;;;;;;;2.23;1.40;;;;;;;22.56;100.00;101346.22;5244992;28;20017;-73
2023/08/12 08:13:58;;;;;;;3.73;1.77;;;;;;;22.57;100.00;101345.19;5247576;28;20538;-75
2023/08/12 08:16:29;;;;;;;1.90;1.60;;;;;;;22.53;100.00;101345.78;5250556;28;20045;-74
2023/08/12 08:19:00;;;;;;;3.17;1.50;;;;;;;22.51;100.00;101354.00;5231150;28;20052;-73
2023/08/12 08:21:32;;;;;;;2.73;1.47;;;;;;;22.58;100.00;101352.19;5245509;28;20494;-73
2023/08/12 08:24:03;;;;;;;2.00;1.80;;;;;;;22.60;100.00;101360.00;5250161;28;20466;-73
2023/08/12 08:26:34;;;;;;;2.20;1.93;;;;;;;22.70;100.00;101363.16;5252905;28;20032;-73
2023/08/12 08:29:06;;;;;;;3.40;2.30;;;;;;;22.74;100.00;101360.91;5252920;28;20064;-74
2023/08/12 08:31:37;;;;;;;2.33;2.13;;;;;;;22.84;100.00;101364.03;5249921;28;20029;-73
2023/08/12 08:34:09;;;;;;;3.10;2.90;;;;;;;22.89;100.00;101371.47;5252094;28;20103;-72
2023/08/12 08:36:40;;;;;;;4.15;3.83;;;;;;;22.77;100.00;101361.34;5251072;28;20020;-73
2023/08/12 08:39:12;;;;;;;4.73;4.00;;;;;;;22.88;100.00;101370.66;5247148;28;20032;-73
2023/08/12 08:41:47;;;;;;;5.23;4.83;;;;;;;22.95;100.00;101368.81;5251727;28;20096;-74
2023/08/12 08:44:22;;;;;;;5.47;5.07;;;;;;;22.96;100.00;101378.53;5247852;28;20048;-74
2023/08/12 08:46:55;;;;;;;6.45;5.95;;;;;;;22.90;100.00;101378.44;5252186;28;20470;-74
2023/08/12 08:49:28;;;;;;;6.63;6.05;;;;;;;23.05;100.00;101376.50;5248289;28;20065;-73
2023/08/12 08:52:00;;;;;;;7.43;6.82;;;;;;;22.96;100.00;101386.53;5251345;28;20047;-72
2023/08/12 08:54:31;;;;;;;8.07;7.57;;;;;;;22.76;100.00;101367.69;5250066;28;20057;-73
2023/08/12 08:57:03;;;;;;;7.43;6.93;;;;;;;22.82;100.00;101388.28;5248269;28;20033;-73
2023/08/12 08:59:35;;;;;;;7.40;6.80;;;;;;;22.78;100.00;101379.00;5251935;28;20021;-74
2023/08/12 09:02:15;;;;;;;5.73;5.33;;;;;;;22.91;100.00;101374.75;5250270;28;20032;-73
2023/08/12 09:04:47;;;;;;;4.68;4.38;;;;;;;22.66;100.00;101377.09;5248818;28;20100;-73
2023/08/12 09:07:20;;;;;;;4.03;3.73;;;;;;;22.63;100.00;101385.50;5248274;28;20474;-74
2023/08/12 09:09:52;;;;;;;;;;;;;;;23.41;100.00;101397.59;5250647;28;20025;-73
2023/08/12 09:12:24;;;;;;;3.00;2.80;;;;;;;22.65;100.00;101402.97;5250402;28;19927;-76
2023/08/12 09:14:55;;;;;;;2.47;2.23;;;;;;;22.67;100.00;101395.59;5249160;28;20049;-73
2023/08/12 09:17:27;;;;;;;2.67;2.47;;;;;;;22.72;100.00;101408.34;5251655;28;20082;-73
2023/08/12 09:19:58;;;;;;;2.37;2.10;;;;;;;22.72;100.00;101408.34;5249174;28;20075;-73
2023/08/12 09:22:30;;;;;;;2.57;2.20;;;;;;;22.61;100.00;101416.91;5250818;28;20063;-75
2023/08/12 09:25:04;;;;;;;2.20;2.00;;;;;;;22.59;100.00;101420.59;5251961;28;20024;-76
2023/08/12 09:27:38;;;;;;;2.17;1.80;;;;;;;22.48;100.00;101414.97;5249110;28;20090;-75
2023/08/12 09:30:10;;;;;;;3.35;1.77;;;;;;;22.39;100.00;101416.13;5248843;28;20048;-73
2023/08/12 09:32:57;;;;;;;;;;;;;;;23.21;100.00;101429.59;5250577;28;20025;-73
2023/08/12 09:35:36;;;;;;;2.97;1.50;;;;;;;22.67;100.00;101424.16;5247968;28;19921;-75
2023/08/12 09:38:12;;;;;;;4.18;1.60;;;;;;;22.64;100.00;101428.03;5245929;28;20547;-74
2023/08/12 09:40:46;;;;;;;3.92;1.98;;;;;;;22.66;100.00;101433.19;5246264;28;20043;-75
2023/08/12 09:43:18;;;;;;;2.13;1.70;;;;;;;22.52;100.00;101433.09;5251631;28;20053;-75
2023/08/12 09:45:49;;;;;;;3.40;1.80;;;;;;;22.56;100.00;101428.19;5241888;28;20035;-74
2023/08/12 09:48:21;;;;;;;2.67;1.80;;;;;;;22.57;100.00;101419.13;5227404;28;20083;-76
2023/08/12 09:50:53;;;;;;;3.13;1.80;;;;;;;22.62;100.00;101430.09;5247129;28;20323;-73
2023/08/12 09:53:26;;;;;;;2.92;2.00;;;;;;;22.76;100.00;101430.97;5248409;28;20405;-76
2023/08/12 09:56:05;;;;;;;3.33;2.15;;;;;;;22.77;100.00;101436.13;5243605;28;20029;-73
2023/08/12 09:58:37;;;;;;;3.15;2.15;;;;;;;22.65;100.00;101431.50;5244432;28;20021;-73
2023/08/12 10:01:10;;;;;;;2.37;1.70;;;;;;;22.90;100.00;101446.06;5250005;28;20051;-73
2023/08/12 10:03:46;;;;;;;3.35;2.03;;;;;;;22.78;100.00;101447.66;5246291;28;20026;-73
2023/08/12 10:06:17;;;;;;;3.78;1.80;;;;;;;22.68;100.00;101442.63;5251024;28;20127;-75
2023/08/12 10:08:50;;;;;;;3.40;2.00;;;;;;;23.01;100.00;101447.41;5251152;28;20168;-72
2023/08/12 10:11:21;;;;;;;3.33;2.10;;;;;;;22.94;100.00;101450.03;5248713;28;20025;-76
2023/08/12 10:13:53;;;;;;;3.40;2.00;;;;;;;;;;5249579;28;20029;-73
2023/08/12 10:16:24;;;;;;;2.57;1.53;;;;;;;;;;5250319;28;20137;-76
2023/08/12 10:18:57;;;;;;;2.90;1.50;;;;;;;23.26;100.00;101437.00;5252303;28;20032;-73
2023/08/12 10:21:28;;;;;;;2.88;1.45;;;;;;;23.11;100.00;101436.31;5247597;28;20479;-74
2023/08/12 10:24:00;;;;;;;5.93;1.67;;;;;;;23.22;100.00;101447.31;5245028;28;20029;-73
2023/08/12 10:26:32;;;;;;;4.20;1.30;;;;;;;23.24;100.00;101441.75;5231979;28;20079;-73
2023/08/12 10:29:04;;;;;;;4.72;1.60;;;;;;;23.20;100.00;101441.31;5255679;28;20032;-76
2023/08/12 10:31:35;;;;;;;3.53;1.10;;;;;;;23.35;100.00;101433.16;5253888;28;20027;-77
2023/08/12 10:34:06;;;;;;;7.03;1.50;;;;;;;23.37;100.00;101430.28;5253333;28;20025;-73
2023/08/12 10:36:41;;;;;;;4.03;1.50;;;;;;;23.60;100.00;101433.47;5252138;28;20028;-76
2023/08/12 10:39:13;;;;;;;6.15;1.90;;;;;;;23.60;100.00;101427.25;5253918;28;20572;-73
2023/08/12 10:41:50;;;;;;;;;;;;;;;24.58;100.00;101435.63;5251800;28;20108;-75
2023/08/12 10:44:26;;;;;;;4.00;1.67;;;;;;;23.93;100.00;101444.22;5251765;28;20431;-73
2023/08/12 10:46:58;;;;;;;2.80;1.50;;;;;;;23.53;100.00;101452.16;5253657;28;20176;-74
2023/08/12 10:49:38;;;;;;;4.83;1.47;;;;;;;23.91;100.00;101448.16;5248449;28;20021;-74
2023/08/12 10:52:28;;;;;;;4.10;1.70;;;;;;;24.07;100.00;101446.94;5250747;28;20541;-74
2023/08/12 10:55:18;;;;;;;3.45;1.40;;;;;;;24.14;100.00;101440.56;5251416;28;20029;-74
2023/08/12 10:57:51;;;;;;;3.85;1.75;;;;;;;23.74;100.00;101443.16;5253535;28;20466;-75
2023/08/12 11:00:25;;;;;;;3.80;1.77;;;;;;;23.60;100.00;101445.97;5251775;28;20486;-74
2023/08/12 11:02:57;;;;;;;3.63;1.42;;;;;;;23.68;100.00;101461.91;5252311;28;20043;-77
2023/08/12 11:05:37;;;;;;;4.30;1.40;;;;;;;23.89;100.00;101460.91;5253291;28;20538;-73
2023/08/12 11:08:09;;;;;;;5.15;1.40;;;;;;;23.70;100.00;101462.50;5254115;28;20449;-73
2023/08/12 11:10:42;;;;;;;3.67;1.37;;;;;;;23.82;100.00;101465.41;5251788;28;20120;-74
2023/08/12 11:13:14;;;;;;;4.40;1.60;;;;;;;23.84;100.00;101458.03;5250901;28;20318;-77
2023/08/12 11:15:46;;;;;;;8.33;1.87;;;;;;;23.83;100.00;101442.97;5254211;28;20045;-73
2023/08/12 11:18:19;;;;;;;4.72;1.65;;;;;;;23.85;100.00;101455.13;5252133;28;20528;-73
2023/08/12 11:20:51;;;;;;;5.82;1.92;;;;;;;23.92;100.00;101455.97;5251290;28;20060;-75
2023/08/12 11:23:23;;;;;;;5.93;1.77;;;;;;;23.88;100.00;101453.91;5255129;28;20032;-73
2023/08/12 11:25:54;;;;;;;4.15;2.00;;;;;;;23.95;100.00;101444.88;5254851;28;20021;-74
2023/08/12 11:28:26;;;;;;;5.47;2.00;;;;;;;23.94;100.00;101456.63;5250835;28;20029;-74
2023/08/12 11:30:58;;;;;;;5.75;2.05;;;;;;;23.94;100.00;101445.91;5250302;28;20126;-73
2023/08/12 11:33:31;;;;;;;7.10;2.13;;;;;;;24.04;100.00;101443.63;5249845;28;20034;-75
2023/08/12 11:36:02;;;;;;;;;;;;;;;25.00;100.00;101442.31;5243855;28;20033;-74
2023/08/12 11:38:34;;;;;;;7.88;2.40;;;;;;;24.24;100.00;101450.84;5243948;28;19917;-74
2023/08/12 11:41:05;;;;;;;6.63;2.47;;;;;;;24.09;100.00;101453.72;5246584;28;20065;-74